sensor_id;sensor_type;location;lat;lon;timestamp;pressure;altitude;pressure_sealevel;temperature;humidity
66021;BME280;52789;59.980;30.346;2024-01-16T00:01:44;98144.53;;;-8.73;100.00
66021;BME280;52789;59.980;30.346;2024-01-16T00:04:10;98214.97;;;-8.34;100.00
66021;BME280;52789;59.980;30.346;2024-01-16T00:06:40;98212.38;;;-8.34;100.00
66021;BME280;52789;59.980;30.346;2024-01-16T00:09:06;98189.97;;;-8.47;100.00
66021;BME280;52789;59.980;30.346;2024-01-16T00:11:31;98207.44;;;-8.37;100.00
66021;BME280;52789;59.980;30.346;2024-01-16T00:13:57;98114.97;;;-8.93;100.00
66021;BME280;52789;59.980;30.346;2024-01-16T00:16:22;98197.94;;;-8.37;100.00
66021;BME280;52789;59.980;30.346;2024-01-16T00:18:51;98206.16;;;-8.32;100.00
66021;BME280;52789;59.980;30.346;2024-01-16T00:21:16;98201.81;;;-8.31;100.00
66021;BME280;52789;59.980;30.346;2024-01-16T00:23:42;98202.53;;;-8.29;100.00
66021;BME280;52789;59.980;30.346;2024-01-16T00:26:07;98187.25;;;-8.32;100.00
66021;BME280;52789;59.980;30.346;2024-01-16T00:28:33;98198.78;;;-8.25;100.00
66021;BME280;52789;59.980;30.346;2024-01-16T00:30:58;98211.97;;;-8.17;100.00
66021;BME280;52789;59.980;30.346;2024-01-16T00:33:24;98180.69;;;-8.36;100.00
66021;BME280;52789;59.980;30.346;2024-01-16T00:35:50;98216.22;;;-8.16;100.00
66021;BME280;52789;59.980;30.346;2024-01-16T00:38:15;98204.34;;;-8.19;100.00
66021;BME280;52789;59.980;30.346;2024-01-16T00:40:41;98196.38;;;-8.16;100.00
66021;BME280;52789;59.980;30.346;2024-01-16T00:43:06;98176.72;;;-8.29;100.00
66021;BME280;52789;59.980;30.346;2024-01-16T00:45:32;98193.06;;;-8.18;100.00
66021;BME280;52789;59.980;30.346;2024-01-16T00:47:57;98195.28;;;-8.24;100.00
66021;BME280;52789;59.980;30.346;2024-01-16T00:50:23;98193.84;;;-8.28;100.00
66021;BME280;52789;59.980;30.346;2024-01-16T00:52:50;98190.31;;;-8.27;100.00
66021;BME280;52789;59.980;30.346;2024-01-16T00:55:15;98172.00;;;-8.35;100.00
66021;BME280;52789;59.980;30.346;2024-01-16T00:57:41;98180.06;;;-8.40;100.00
66021;BME280;52789;59.980;30.346;2024-01-16T01:00:07;98182.84;;;-8.43;100.00
66021;BME280;52789;59.980;30.346;2024-01-16T01:02:33;98200.16;;;-8.32;100.00
66021;BME280;52789;59.980;30.346;2024-01-16T01:04:58;98190.19;;;-8.37;100.00
66021;BME280;52789;59.980;30.346;2024-01-16T01:07:23;98192.19;;;-8.29;100.00
66021;BME280;52789;59.980;30.346;2024-01-16T01:09:51;98192.81;;;-8.26;100.00
66021;BME280;52789;59.980;30.346;2024-01-16T01:12:16;98194.78;;;-8.29;100.00
66021;BME280;52789;59.980;30.346;2024-01-16T01:14:42;98193.13;;;-8.30;100.00
66021;BME280;52789;59.980;30.346;2024-01-16T01:17:09;98163.03;;;-8.43;100.00
66021;BME280;52789;59.980;30.346;2024-01-16T01:19:34;98189.84;;;-8.32;100.00
66021;BME280;52789;59.980;30.346;2024-01-16T01:22:00;98168.50;;;-8.47;100.00
66021;BME280;52789;59.980;30.346;2024-01-16T01:24:25;98189.66;;;-8.42;100.00
66021;BME280;52789;59.980;30.346;2024-01-16T01:26:51;98195.00;;;-8.32;100.00
66021;BME280;52789;59.980;30.346;2024-01-16T01:29:16;98177.19;;;-8.35;100.00
66021;BME280;52789;59.980;30.346;2024-01-16T01:31:45;98199.00;;;-8.28;100.00
66021;BME280;52789;59.980;30.346;2024-01-16T01:34:12;98201.81;;;-8.31;100.00
66021;BME280;52789;59.980;30.346;2024-01-16T01:36:38;98181.63;;;-8.37;100.00
66021;BME280;52789;59.980;30.346;2024-01-16T01:39:03;98189.19;;;-8.23;100.00
66021;BME280;52789;59.980;30.346;2024-01-16T01:41:29;98196.22;;;-8.25;100.00
66021;BME280;52789;59.980;30.346;2024-01-16T01:43:54;98187.25;;;-8.32;100.00
66021;BME280;52789;59.980;30.346;2024-01-16T01:46:20;98179.88;;;-8.37;100.00
66021;BME280;52789;59.980;30.346;2024-01-16T01:48:47;98199.72;;;-8.26;100.00
66021;BME280;52789;59.980;30.346;2024-01-16T01:51:14;98189.63;;;-8.29;100.00
66021;BME280;52789;59.980;30.346;2024-01-16T01:53:43;98170.66;;;-8.41;100.00
66021;BME280;52789;59.980;30.346;2024-01-16T01:56:11;98200.00;;;-8.18;100.00
66021;BME280;52789;59.980;30.346;2024-01-16T01:58:41;98185.22;;;-8.16;100.00
66021;BME280;52789;59.980;30.346;2024-01-16T02:01:09;98190.81;;;-8.22;100.00
66021;BME280;52789;59.980;30.346;2024-01-16T02:03:40;98195.84;;;-8.08;100.00
66021;BME280;52789;59.980;30.346;2024-01-16T02:06:07;98153.41;;;-8.40;100.00
66021;BME280;52789;59.980;30.346;2024-01-16T02:08:32;98187.09;;;-8.18;100.00
66021;BME280;52789;59.980;30.346;2024-01-16T02:10:58;98181.31;;;-8.22;100.00
66021;BME280;52789;59.980;30.346;2024-01-16T02:13:23;98168.41;;;-8.22;100.00
66021;BME280;52789;59.980;30.346;2024-01-16T02:15:52;98188.00;;;-8.06;100.00
66021;BME280;52789;59.980;30.346;2024-01-16T02:18:19;98166.44;;;-8.18;100.00
66021;BME280;52789;59.980;30.346;2024-01-16T02:20:45;98188.19;;;-8.09;100.00
66021;BME280;52789;59.980;30.346;2024-01-16T02:23:14;98176.72;;;-8.05;100.00
66021;BME280;52789;59.980;30.346;2024-01-16T02:25:41;98139.56;;;-8.39;100.00
66021;BME280;52789;59.980;30.346;2024-01-16T02:28:07;98161.72;;;-8.24;100.00
66021;BME280;52789;59.980;30.346;2024-01-16T02:30:33;98150.78;;;-8.28;100.00
66021;BME280;52789;59.980;30.346;2024-01-16T02:32:59;98165.59;;;-8.19;100.00
66021;BME280;52789;59.980;30.346;2024-01-16T02:35:24;98171.88;;;-8.10;100.00
66021;BME280;52789;59.980;30.346;2024-01-16T02:37:50;98160.34;;;-8.17;100.00
66021;BME280;52789;59.980;30.346;2024-01-16T02:40:15;98168.88;;;-8.04;100.00
66021;BME280;52789;59.980;30.346;2024-01-16T02:42:41;98109.66;;;-8.42;100.00
66021;BME280;52789;59.980;30.346;2024-01-16T02:45:07;98145.50;;;-8.26;100.00
66021;BME280;52789;59.980;30.346;2024-01-16T02:47:33;98178.03;;;-8.00;100.00
66021;BME280;52789;59.980;30.346;2024-01-16T02:49:59;98168.75;;;-8.02;100.00
66021;BME280;52789;59.980;30.346;2024-01-16T02:52:25;98164.88;;;-8.08;100.00
66021;BME280;52789;59.980;30.346;2024-01-16T02:54:50;98147.97;;;-8.25;100.00
66021;BME280;52789;59.980;30.346;2024-01-16T02:57:16;98189.44;;;-8.02;100.00
66021;BME280;52789;59.980;30.346;2024-01-16T02:59:45;98165.81;;;-8.09;100.00
66021;BME280;52789;59.980;30.346;2024-01-16T03:02:10;98187.22;;;-7.96;100.00
66021;BME280;52789;59.980;30.346;2024-01-16T03:04:37;98174.44;;;-8.10;100.00
66021;BME280;52789;59.980;30.346;2024-01-16T03:07:02;98192.84;;;-8.02;100.00
66021;BME280;52789;59.980;30.346;2024-01-16T03:09:28;98186.00;;;-8.03;100.00
66021;BME280;52789;59.980;30.346;2024-01-16T03:11:53;98166.22;;;-8.15;100.00
66021;BME280;52789;59.980;30.346;2024-01-16T03:14:19;98059.56;;;-8.87;100.00
66021;BME280;52789;59.980;30.346;2024-01-16T03:16:45;98187.78;;;-8.03;100.00
66021;BME280;52789;59.980;30.346;2024-01-16T03:19:12;98179.63;;;-8.10;100.00
66021;BME280;52789;59.980;30.346;2024-01-16T03:21:38;98166.44;;;-8.18;100.00
66021;BME280;52789;59.980;30.346;2024-01-16T03:24:04;98170.16;;;-8.22;100.00
66021;BME280;52789;59.980;30.346;2024-01-16T03:26:31;98186.63;;;-7.99;100.00
66021;BME280;52789;59.980;30.346;2024-01-16T03:28:57;98193.44;;;-7.98;100.00
66021;BME280;52789;59.980;30.346;2024-01-16T03:31:23;98177.78;;;-8.08;100.00
66021;BME280;52789;59.980;30.346;2024-01-16T03:33:49;98190.63;;;-7.95;100.00
66021;BME280;52789;59.980;30.346;2024-01-16T03:36:15;98159.41;;;-8.16;100.00
66021;BME280;52789;59.980;30.346;2024-01-16T03:38:44;98185.19;;;-8.03;100.00
66021;BME280;52789;59.980;30.346;2024-01-16T03:41:12;98183.53;;;-8.04;100.00
66021;BME280;52789;59.980;30.346;2024-01-16T03:43:39;98181.91;;;-8.05;100.00
66021;BME280;52789;59.980;30.346;2024-01-16T03:46:05;98170.44;;;-8.14;100.00
66021;BME280;52789;59.980;30.346;2024-01-16T03:48:30;98181.47;;;-8.12;100.00
66021;BME280;52789;59.980;30.346;2024-01-16T03:50:56;98168.78;;;-8.15;100.00
66021;BME280;52789;59.980;30.346;2024-01-16T03:53:22;98182.41;;;-8.13;100.00
66021;BME280;52789;59.980;30.346;2024-01-16T03:55:48;98161.31;;;-8.31;100.00
66021;BME280;52789;59.980;30.346;2024-01-16T03:58:15;98169.22;;;-8.21;100.00
66021;BME280;52789;59.980;30.346;2024-01-16T04:00:41;98198.00;;;-8.02;100.00
66021;BME280;52789;59.980;30.346;2024-01-16T04:03:07;98192.00;;;-8.02;100.00
66021;BME280;52789;59.980;30.346;2024-01-16T04:05:33;98201.78;;;-7.95;100.00
66021;BME280;52789;59.980;30.346;2024-01-16T04:07:59;98210.25;;;-7.93;100.00
66021;BME280;52789;59.980;30.346;2024-01-16T04:10:24;98164.34;;;-8.13;100.00
66021;BME280;52789;59.980;30.346;2024-01-16T04:12:50;98177.78;;;-8.08;100.00
66021;BME280;52789;59.980;30.346;2024-01-16T04:15:15;98190.97;;;-8.00;100.00
66021;BME280;52789;59.980;30.346;2024-01-16T04:17:41;98184.53;;;-7.94;100.00
66021;BME280;52789;59.980;30.346;2024-01-16T04:20:07;98192.06;;;-7.91;100.00
66021;BME280;52789;59.980;30.346;2024-01-16T04:22:33;98174.88;;;-8.03;100.00
66021;BME280;52789;59.980;30.346;2024-01-16T04:24:58;98159.78;;;-8.09;100.00
66021;BME280;52789;59.980;30.346;2024-01-16T04:27:24;98178.97;;;-8.01;100.00
66021;BME280;52789;59.980;30.346;2024-01-16T04:29:50;98196.28;;;-7.90;100.00
66021;BME280;52789;59.980;30.346;2024-01-16T04:32:16;98177.94;;;-7.98;100.00
66021;BME280;52789;59.980;30.346;2024-01-16T04:34:42;98173.59;;;-7.98;100.00
66021;BME280;52789;59.980;30.346;2024-01-16T04:37:07;98190.06;;;-7.88;100.00
66021;BME280;52789;59.980;30.346;2024-01-16T04:39:33;98182.66;;;-7.92;100.00
66021;BME280;52789;59.980;30.346;2024-01-16T04:41:58;98139.22;;;-8.11;100.00
66021;BME280;52789;59.980;30.346;2024-01-16T04:44:24;98160.44;;;-7.95;100.00
66021;BME280;52789;59.980;30.346;2024-01-16T04:46:49;98123.19;;;-8.27;100.00
66021;BME280;52789;59.980;30.346;2024-01-16T04:49:15;98153.38;;;-8.04;100.00
66021;BME280;52789;59.980;30.346;2024-01-16T04:51:40;98196.25;;;-7.77;100.00
66021;BME280;52789;59.980;30.346;2024-01-16T04:54:07;98193.97;;;-7.82;100.00
66021;BME280;52789;59.980;30.346;2024-01-16T04:56:32;98186.44;;;-7.85;100.00
66021;BME280;52789;59.980;30.346;2024-01-16T04:58:58;98196.47;;;-7.81;100.00
66021;BME280;52789;59.980;30.346;2024-01-16T05:01:23;98215.38;;;-7.80;100.00
66021;BME280;52789;59.980;30.346;2024-01-16T05:03:50;98191.22;;;-7.92;100.00
66021;BME280;52789;59.980;30.346;2024-01-16T05:06:16;98204.63;;;-7.87;100.00
66021;BME280;52789;59.980;30.346;2024-01-16T05:08:42;98219.09;;;-7.84;100.00
66021;BME280;52789;59.980;30.346;2024-01-16T05:11:09;98196.13;;;-8.00;100.00
66021;BME280;52789;59.980;30.346;2024-01-16T05:13:35;98159.63;;;-8.19;100.00
66021;BME280;52789;59.980;30.346;2024-01-16T05:16:01;98222.56;;;-7.96;100.00
66021;BME280;52789;59.980;30.346;2024-01-16T05:18:28;98206.25;;;-8.09;100.00
66021;BME280;52789;59.980;30.346;2024-01-16T05:20:53;98229.00;;;-8.02;100.00
66021;BME280;52789;59.980;30.346;2024-01-16T05:23:21;98164.69;;;-8.41;100.00
66021;BME280;52789;59.980;30.346;2024-01-16T05:25:47;98229.09;;;-8.03;100.00
66021;BME280;52789;59.980;30.346;2024-01-16T05:28:12;98227.56;;;-8.06;100.00
66021;BME280;52789;59.980;30.346;2024-01-16T05:30:38;98209.69;;;-8.09;100.00
66021;BME280;52789;59.980;30.346;2024-01-16T05:33:04;98227.34;;;-8.03;100.00
66021;BME280;52789;59.980;30.346;2024-01-16T05:35:29;98229.00;;;-8.02;100.00
66021;BME280;52789;59.980;30.346;2024-01-16T05:37:56;98211.94;;;-8.04;100.00
66021;BME280;52789;59.980;30.346;2024-01-16T05:40:22;98227.47;;;-7.81;100.00
66021;BME280;52789;59.980;30.346;2024-01-16T05:42:49;98229.28;;;-7.70;100.00
66021;BME280;52789;59.980;30.346;2024-01-16T05:45:15;98229.16;;;-7.68;100.00
66021;BME280;52789;59.980;30.346;2024-01-16T05:47:41;98227.28;;;-7.66;100.00
66021;BME280;52789;59.980;30.346;2024-01-16T05:50:07;98238.94;;;-7.61;100.00
66021;BME280;52789;59.980;30.346;2024-01-16T05:52:34;98244.50;;;-7.54;100.00
66021;BME280;52789;59.980;30.346;2024-01-16T05:55:01;98196.06;;;-7.87;100.00
66021;BME280;52789;59.980;30.346;2024-01-16T05:57:30;98253.03;;;-7.65;100.00
66021;BME280;52789;59.980;30.346;2024-01-16T05:59:59;98252.81;;;-7.62;100.00
66021;BME280;52789;59.980;30.346;2024-01-16T06:02:29;98228.69;;;-7.73;100.00
66021;BME280;52789;59.980;30.346;2024-01-16T06:04:55;98249.00;;;-7.45;100.00
66021;BME280;52789;59.980;30.346;2024-01-16T06:07:21;98222.63;;;-7.61;100.00
66021;BME280;52789;59.980;30.346;2024-01-16T06:09:46;98246.59;;;-7.59;100.00
66021;BME280;52789;59.980;30.346;2024-01-16T06:12:11;98247.53;;;-7.60;100.00
66021;BME280;52789;59.980;30.346;2024-01-16T06:14:37;98241.19;;;-7.56;100.00
66021;BME280;52789;59.980;30.346;2024-01-16T06:17:03;98235.78;;;-7.53;100.00
66021;BME280;52789;59.980;30.346;2024-01-16T06:19:31;98249.72;;;-7.43;100.00
66021;BME280;52789;59.980;30.346;2024-01-16T06:21:58;98249.47;;;-7.51;100.00
66021;BME280;52789;59.980;30.346;2024-01-16T06:24:24;98266.19;;;-7.44;100.00
66021;BME280;52789;59.980;30.346;2024-01-16T06:26:49;98280.06;;;-7.34;100.00
66021;BME280;52789;59.980;30.346;2024-01-16T06:29:15;98244.72;;;-7.57;100.00
66021;BME280;52789;59.980;30.346;2024-01-16T06:31:40;98273.63;;;-7.52;100.00
66021;BME280;52789;59.980;30.346;2024-01-16T06:34:06;98241.09;;;-7.78;100.00
66021;BME280;52789;59.980;30.346;2024-01-16T06:36:31;98269.84;;;-7.59;100.00
66021;BME280;52789;59.980;30.346;2024-01-16T06:38:57;98290.00;;;-7.52;100.00
66021;BME280;52789;59.980;30.346;2024-01-16T06:41:22;98243.13;;;-7.71;100.00
66021;BME280;52789;59.980;30.346;2024-01-16T06:43:48;98259.47;;;-7.70;100.00
66021;BME280;52789;59.980;30.346;2024-01-16T06:46:13;98270.28;;;-7.65;100.00
66021;BME280;52789;59.980;30.346;2024-01-16T06:48:39;98276.41;;;-7.66;100.00
66021;BME280;52789;59.980;30.346;2024-01-16T06:51:05;98225.47;;;-8.01;100.00
66021;BME280;52789;59.980;30.346;2024-01-16T06:53:30;98292.28;;;-7.60;100.00
66021;BME280;52789;59.980;30.346;2024-01-16T06:55:56;98262.38;;;-7.75;100.00
66021;BME280;52789;59.980;30.346;2024-01-16T06:58:22;98299.94;;;-7.58;100.00
66021;BME280;52789;59.980;30.346;2024-01-16T07:00:47;98305.09;;;-7.58;100.00
66021;BME280;52789;59.980;30.346;2024-01-16T07:03:13;98312.50;;;-7.54;100.00
66021;BME280;52789;59.980;30.346;2024-01-16T07:05:39;98303.22;;;-7.56;100.00
66021;BME280;52789;59.980;30.346;2024-01-16T07:08:09;98268.41;;;-7.87;100.00
66021;BME280;52789;59.980;30.346;2024-01-16T07:10:34;98299.16;;;-7.71;100.00
66021;BME280;52789;59.980;30.346;2024-01-16T07:13:01;98292.16;;;-7.82;100.00
66021;BME280;52789;59.980;30.346;2024-01-16T07:15:27;98310.53;;;-7.74;100.00
66021;BME280;52789;59.980;30.346;2024-01-16T07:17:52;98295.28;;;-7.90;100.00
66021;BME280;52789;59.980;30.346;2024-01-16T07:20:20;98183.44;;;-8.63;100.00
66021;BME280;52789;59.980;30.346;2024-01-16T07:22:46;98315.50;;;-7.84;100.00
66021;BME280;52789;59.980;30.346;2024-01-16T07:25:12;98305.44;;;-7.99;100.00
66021;BME280;52789;59.980;30.346;2024-01-16T07:27:38;98331.16;;;-7.98;100.00
66021;BME280;52789;59.980;30.346;2024-01-16T07:30:04;98310.22;;;-8.06;100.00
66021;BME280;52789;59.980;30.346;2024-01-16T07:32:30;98300.09;;;-8.09;100.00
66021;BME280;52789;59.980;30.346;2024-01-16T07:34:56;98322.09;;;-8.03;100.00
66021;BME280;52789;59.980;30.346;2024-01-16T07:37:22;98333.84;;;-8.12;100.00
66021;BME280;52789;59.980;30.346;2024-01-16T07:39:47;98329.03;;;-8.29;100.00
66021;BME280;52789;59.980;30.346;2024-01-16T07:42:13;98345.16;;;-8.38;100.00
66021;BME280;52789;59.980;30.346;2024-01-16T07:44:39;98328.22;;;-8.55;100.00
66021;BME280;52789;59.980;30.346;2024-01-16T07:47:04;98312.00;;;-8.70;100.00
66021;BME280;52789;59.980;30.346;2024-01-16T07:49:30;98309.31;;;-8.68;100.00
66021;BME280;52789;59.980;30.346;2024-01-16T07:51:55;98332.16;;;-8.50;99.52
66021;BME280;52789;59.980;30.346;2024-01-16T07:54:21;98350.31;;;-8.38;98.18
66021;BME280;52789;59.980;30.346;2024-01-16T07:56:46;98332.03;;;-8.73;98.15
66021;BME280;52789;59.980;30.346;2024-01-16T07:59:12;98313.44;;;-8.91;98.86
66021;BME280;52789;59.980;30.346;2024-01-16T08:01:38;98344.50;;;-8.80;98.51
66021;BME280;52789;59.980;30.346;2024-01-16T08:04:03;98339.75;;;-8.86;98.84
66021;BME280;52789;59.980;30.346;2024-01-16T08:06:29;98346.16;;;-8.79;99.60
66021;BME280;52789;59.980;30.346;2024-01-16T08:08:55;98367.75;;;-8.55;98.43
66021;BME280;52789;59.980;30.346;2024-01-16T08:11:20;98373.22;;;-8.59;97.82
66021;BME280;52789;59.980;30.346;2024-01-16T08:13:46;98377.53;;;-8.72;97.06
66021;BME280;52789;59.980;30.346;2024-01-16T08:16:15;98369.69;;;-8.71;97.71
66021;BME280;52789;59.980;30.346;2024-01-16T08:18:42;98371.53;;;-8.73;96.10
66021;BME280;52789;59.980;30.346;2024-01-16T08:21:08;98352.97;;;-8.78;96.40
66021;BME280;52789;59.980;30.346;2024-01-16T08:23:34;98357.50;;;-8.82;95.66
66021;BME280;52789;59.980;30.346;2024-01-16T08:26:00;98350.69;;;-8.95;95.12
66021;BME280;52789;59.980;30.346;2024-01-16T08:28:26;98377.13;;;-8.79;95.54
66021;BME280;52789;59.980;30.346;2024-01-16T08:30:52;98359.19;;;-9.08;95.11
66021;BME280;52789;59.980;30.346;2024-01-16T08:33:19;98394.59;;;-8.97;95.09
66021;BME280;52789;59.980;30.346;2024-01-16T08:35:44;98343.22;;;-9.27;95.60
66021;BME280;52789;59.980;30.346;2024-01-16T08:38:10;98385.50;;;-9.02;97.00
66021;BME280;52789;59.980;30.346;2024-01-16T08:40:36;98382.63;;;-8.98;95.76
66021;BME280;52789;59.980;30.346;2024-01-16T08:43:01;98358.13;;;-9.18;95.03
66021;BME280;52789;59.980;30.346;2024-01-16T08:45:27;98400.66;;;-8.98;94.52
66021;BME280;52789;59.980;30.346;2024-01-16T08:47:52;98384.97;;;-9.08;94.99
66021;BME280;52789;59.980;30.346;2024-01-16T08:50:18;98335.91;;;-9.33;95.29
66021;BME280;52789;59.980;30.346;2024-01-16T08:52:44;98395.41;;;-8.96;94.20
66021;BME280;52789;59.980;30.346;2024-01-16T08:55:09;98348.38;;;-9.27;93.43
66021;BME280;52789;59.980;30.346;2024-01-16T08:57:36;98399.94;;;-9.00;93.63
66021;BME280;52789;59.980;30.346;2024-01-16T09:00:06;98416.09;;;-8.84;93.46
66021;BME280;52789;59.980;30.346;2024-01-16T09:02:31;98432.00;;;-8.77;93.40
66021;BME280;52789;59.980;30.346;2024-01-16T09:04:57;98433.88;;;-8.79;92.25
66021;BME280;52789;59.980;30.346;2024-01-16T09:07:24;98408.66;;;-8.88;92.92
66021;BME280;52789;59.980;30.346;2024-01-16T09:09:50;98410.72;;;-8.93;92.45
66021;BME280;52789;59.980;30.346;2024-01-16T09:12:16;98405.19;;;-9.01;91.74
66021;BME280;52789;59.980;30.346;2024-01-16T09:14:41;98408.19;;;-9.08;92.89
66021;BME280;52789;59.980;30.346;2024-01-16T09:17:13;98391.06;;;-9.09;93.11
66021;BME280;52789;59.980;30.346;2024-01-16T09:19:39;98433.47;;;-8.73;92.43
66021;BME280;52789;59.980;30.346;2024-01-16T09:22:04;98440.06;;;-8.69;92.36
66021;BME280;52789;59.980;30.346;2024-01-16T09:24:33;98414.66;;;-8.88;92.61
66021;BME280;52789;59.980;30.346;2024-01-16T09:26:59;98438.25;;;-8.67;93.11
66021;BME280;52789;59.980;30.346;2024-01-16T09:29:25;98447.56;;;-8.52;93.76
66021;BME280;52789;59.980;30.346;2024-01-16T09:31:51;98431.66;;;-8.46;93.60
66021;BME280;52789;59.980;30.346;2024-01-16T09:34:17;98428.25;;;-8.46;92.69
66021;BME280;52789;59.980;30.346;2024-01-16T09:36:43;98385.06;;;-8.69;93.29
66021;BME280;52789;59.980;30.346;2024-01-16T09:39:08;98436.22;;;-8.11;93.17
66021;BME280;52789;59.980;30.346;2024-01-16T09:41:36;98457.72;;;-7.98;92.47
66021;BME280;52789;59.980;30.346;2024-01-16T09:44:03;98428.19;;;-8.06;91.32
66021;BME280;52789;59.980;30.346;2024-01-16T09:46:30;98455.97;;;-7.97;90.57
66021;BME280;52789;59.980;30.346;2024-01-16T09:48:56;98467.63;;;-7.92;90.88
66021;BME280;52789;59.980;30.346;2024-01-16T09:51:24;98469.91;;;-8.00;90.48
66021;BME280;52789;59.980;30.346;2024-01-16T09:53:50;98455.47;;;-8.02;90.11
66021;BME280;52789;59.980;30.346;2024-01-16T09:56:19;98475.59;;;-7.95;90.89
66021;BME280;52789;59.980;30.346;2024-01-16T09:58:48;98444.72;;;-8.09;90.03
66021;BME280;52789;59.980;30.346;2024-01-16T10:01:15;98469.72;;;-7.97;89.74
66021;BME280;52789;59.980;30.346;2024-01-16T10:03:44;98393.28;;;-8.37;90.45
66021;BME280;52789;59.980;30.346;2024-01-16T10:06:10;98403.69;;;-8.39;89.88
66021;BME280;52789;59.980;30.346;2024-01-16T10:08:37;98477.47;;;-7.97;90.11
66021;BME280;52789;59.980;30.346;2024-01-16T10:11:02;98481.47;;;-8.18;90.28
66021;BME280;52789;59.980;30.346;2024-01-16T10:13:28;98478.56;;;-8.26;89.68
66021;BME280;52789;59.980;30.346;2024-01-16T10:15:54;98497.88;;;-8.19;90.21
66021;BME280;52789;59.980;30.346;2024-01-16T10:20:50;98476.72;;;-8.37;89.03
66021;BME280;52789;59.980;30.346;2024-01-16T10:23:22;98501.91;;;-8.28;88.51
66021;BME280;52789;59.980;30.346;2024-01-16T10:26:07;98477.81;;;-8.54;88.03
66021;BME280;52789;59.980;30.346;2024-01-16T10:28:34;98441.28;;;-8.87;88.84
66021;BME280;52789;59.980;30.346;2024-01-16T10:31:07;98512.22;;;-8.40;88.51
66021;BME280;52789;59.980;30.346;2024-01-16T10:33:33;98511.06;;;-8.49;89.02
66021;BME280;52789;59.980;30.346;2024-01-16T10:36:10;98493.16;;;-8.65;89.85
66021;BME280;52789;59.980;30.346;2024-01-16T10:38:37;98523.00;;;-8.61;91.43
66021;BME280;52789;59.980;30.346;2024-01-16T10:41:09;98526.94;;;-8.55;90.70
66021;BME280;52789;59.980;30.346;2024-01-16T10:43:35;98535.13;;;-8.49;88.98
66021;BME280;52789;59.980;30.346;2024-01-16T10:46:27;98539.06;;;-8.43;88.87
66021;BME280;52789;59.980;30.346;2024-01-16T10:49:05;98527.06;;;-8.44;88.94
66021;BME280;52789;59.980;30.346;2024-01-16T10:51:31;98516.50;;;-8.54;89.11
66021;BME280;52789;59.980;30.346;2024-01-16T10:54:04;98537.03;;;-8.38;89.52
66021;BME280;52789;59.980;30.346;2024-01-16T10:56:34;98501.63;;;-8.63;87.72
66021;BME280;52789;59.980;30.346;2024-01-16T10:59:25;98548.34;;;-8.40;86.92
66021;BME280;52789;59.980;30.346;2024-01-16T11:01:54;98532.78;;;-8.66;86.65
66021;BME280;52789;59.980;30.346;2024-01-16T11:04:20;98549.75;;;-8.76;86.15
66021;BME280;52789;59.980;30.346;2024-01-16T11:06:47;98547.31;;;-8.92;86.60
66021;BME280;52789;59.980;30.346;2024-01-16T11:09:13;98513.94;;;-9.22;86.61
66021;BME280;52789;59.980;30.346;2024-01-16T11:11:45;98553.50;;;-8.94;87.83
66021;BME280;52789;59.980;30.346;2024-01-16T11:14:12;98565.47;;;-8.93;86.69
66021;BME280;52789;59.980;30.346;2024-01-16T11:16:39;98538.75;;;-9.07;87.04
66021;BME280;52789;59.980;30.346;2024-01-16T11:19:08;98569.03;;;-8.82;86.50
66021;BME280;52789;59.980;30.346;2024-01-16T11:21:36;98523.88;;;-9.16;85.83
66021;BME280;52789;59.980;30.346;2024-01-16T11:24:02;98570.34;;;-8.89;85.92
66021;BME280;52789;59.980;30.346;2024-01-16T11:31:52;98566.00;;;-9.02;85.54
66021;BME280;52789;59.980;30.346;2024-01-16T11:37:07;98584.44;;;-9.09;87.32
66021;BME280;52789;59.980;30.346;2024-01-16T11:39:33;98568.81;;;-9.20;85.79
66021;BME280;52789;59.980;30.346;2024-01-16T11:41:59;98579.47;;;-9.26;84.91
66021;BME280;52789;59.980;30.346;2024-01-16T11:44:41;98596.25;;;-9.19;84.42
66021;BME280;52789;59.980;30.346;2024-01-16T11:47:17;98567.59;;;-9.43;85.16
66021;BME280;52789;59.980;30.346;2024-01-16T11:49:48;98600.47;;;-9.32;85.05
66021;BME280;52789;59.980;30.346;2024-01-16T11:52:14;98594.38;;;-9.45;85.08
66021;BME280;52789;59.980;30.346;2024-01-16T11:54:41;98537.09;;;-9.93;84.45
66021;BME280;52789;59.980;30.346;2024-01-16T11:59:57;98617.06;;;-9.66;86.46
66021;BME280;52789;59.980;30.346;2024-01-16T12:02:53;98627.84;;;-9.59;86.40
66021;BME280;52789;59.980;30.346;2024-01-16T12:05:20;98632.44;;;-9.64;85.98
66021;BME280;52789;59.980;30.346;2024-01-16T12:07:48;98636.69;;;-9.63;85.16
66021;BME280;52789;59.980;30.346;2024-01-16T12:10:21;98631.53;;;-9.63;86.12
66021;BME280;52789;59.980;30.346;2024-01-16T12:12:49;98632.16;;;-9.60;86.16
66021;BME280;52789;59.980;30.346;2024-01-16T12:15:20;98630.22;;;-9.71;85.18
66021;BME280;52789;59.980;30.346;2024-01-16T12:18:00;98649.16;;;-9.72;85.26
66021;BME280;52789;59.980;30.346;2024-01-16T12:20:30;98652.09;;;-9.78;84.97
66021;BME280;52789;59.980;30.346;2024-01-16T12:23:01;98649.53;;;-9.78;85.31
66021;BME280;52789;59.980;30.346;2024-01-16T12:25:28;98637.69;;;-9.96;85.67
66021;BME280;52789;59.980;30.346;2024-01-16T12:28:14;98662.69;;;-9.82;86.31
66021;BME280;52789;59.980;30.346;2024-01-16T12:30:49;98670.97;;;-9.77;85.92
66021;BME280;52789;59.980;30.346;2024-01-16T12:33:15;98644.97;;;-9.88;85.85
66021;BME280;52789;59.980;30.346;2024-01-16T12:35:44;98676.28;;;-9.80;85.47
66021;BME280;52789;59.980;30.346;2024-01-16T12:38:12;98682.59;;;-9.86;85.58
66021;BME280;52789;59.980;30.346;2024-01-16T12:40:57;98665.84;;;-9.93;85.98
66021;BME280;52789;59.980;30.346;2024-01-16T12:43:24;98669.84;;;-10.03;86.11
66021;BME280;52789;59.980;30.346;2024-01-16T12:45:56;98668.28;;;-10.06;87.11
66021;BME280;52789;59.980;30.346;2024-01-16T12:48:24;98695.72;;;-9.90;86.81
66021;BME280;52789;59.980;30.346;2024-01-16T12:50:50;98680.16;;;-10.03;87.06
66021;BME280;52789;59.980;30.346;2024-01-16T12:53:15;98656.44;;;-10.24;86.47
66021;BME280;52789;59.980;30.346;2024-01-16T12:55:44;98693.59;;;-10.14;86.96